Time;durP1;ratioP1;P1;durP2;ratioP2;P2;SDS_P1;SDS_P2;PMS_P1;PMS_P2;Temp;Humidity;BMP_temperature;BMP_pressure;BME280_temperature;BME280_humidity;BME280_pressure;Samples;Min_cycle;Max_cycle;Signal;HPM_P1;HPM_P2
2022/07/31 00:02:15;;;;;;;;;;;563.70;2432.00;;;;;;5113274;28;20380;-62
2022/07/31 00:04:40;;;;;;;;;;;563.70;2432.00;;;;;;5115459;28;19908;-57
2022/07/31 00:07:06;;;;;;;;;;;563.70;2432.00;;;;;;5115561;28;20314;-57
2022/07/31 00:09:32;;;;;;;;;;;563.70;2432.00;;;;;;5115433;28;19908;-63
2022/07/31 00:11:57;;;;;;;;;;;563.70;2432.00;;;;;;5115155;28;19970;-57
2022/07/31 00:14:23;;;;;;;;;;;563.70;2432.00;;;;;;5115222;28;20090;-60
2022/07/31 00:16:48;;;;;;;;;;;563.60;2432.00;;;;;;5115243;28;19907;-57
2022/07/31 00:19:16;;;;;;;;;;;563.70;2432.00;;;;;;5115298;28;19915;-61
2022/07/31 00:21:42;;;;;;;;;;;563.50;2432.00;;;;;;5115050;28;20353;-63
2022/07/31 00:24:07;;;;;;;;;;;563.40;2432.00;;;;;;5115191;28;19908;-63
2022/07/31 00:26:33;;;;;;;;;;;563.40;2432.00;;;;;;5114996;28;19965;-62
2022/07/31 00:28:58;;;;;;;;;;;563.50;2432.00;;;;;;5115552;28;19961;-57
2022/07/31 00:31:24;;;;;;;;;;;563.50;2432.00;;;;;;5115239;28;19944;-56
2022/07/31 00:33:50;;;;;;;;;;;563.50;2432.00;;;;;;5115235;28;19937;-62
2022/07/31 00:36:15;;;;;;;;;;;563.50;2432.00;;;;;;5114967;28;20276;-63
2022/07/31 00:38:41;;;;;;;;;;;563.50;2432.00;;;;;;5114829;28;19908;-61
2022/07/31 00:41:06;;;;;;;;;;;563.50;2432.00;;;;;;5114702;28;19911;-62
2022/07/31 00:43:32;;;;;;;;;;;563.40;2432.00;;;;;;5114728;28;19912;-63
2022/07/31 00:45:58;;;;;;;;;;;563.50;2432.00;;;;;;5114629;28;20309;-58
2022/07/31 00:48:23;;;;;;;;;;;563.50;2432.00;;;;;;5114709;28;19960;-56
2022/07/31 00:50:49;;;;;;;;;;;563.40;2432.00;;;;;;5114617;28;20002;-63
2022/07/31 00:53:15;;;;;;;;;;;563.50;2432.00;;;;;;5114744;28;19936;-57
2022/07/31 00:55:41;;;;;;;;;;;563.60;2432.00;;;;;;5114432;28;19908;-57
2022/07/31 00:58:06;;;;;;;;;;;563.50;2432.00;;;;;;5114716;28;19907;-63
2022/07/31 01:00:32;;;;;;;;;;;563.40;2432.00;;;;;;5114117;28;20357;-57
2022/07/31 01:02:57;;;;;;;;;;;563.50;2432.00;;;;;;5114750;28;20015;-59
2022/07/31 01:05:23;;;;;;;;;;;563.50;2432.00;;;;;;5114174;28;19985;-57
2022/07/31 01:07:49;;;;;;;;;;;563.40;2432.00;;;;;;5114527;28;19908;-62
2022/07/31 01:10:24;;;;;;;;;;;563.40;2432.00;;;;;;5095695;28;20407;-57
2022/07/31 01:12:53;;;;;;;;;;;563.40;2432.00;;;;;;5113749;28;19918;-63
2022/07/31 01:15:19;;;;;;;;;;;563.40;2432.00;;;;;;5114256;28;19934;-58
2022/07/31 01:17:47;;;;;;;;;;;563.40;2432.00;;;;;;5114122;28;19912;-62
2022/07/31 01:20:13;;;;;;;;;;;563.50;2432.00;;;;;;5114046;28;19930;-56
2022/07/31 01:22:57;;;;;;;;;;;563.50;2432.00;;;;;;5114231;28;20382;-57
2022/07/31 01:25:48;;;;;;;;;;;563.60;2432.00;;;;;;5113909;28;20010;-62
2022/07/31 01:28:23;;;;;;;;;;;563.60;2432.00;;;;;;5108710;28;20312;-62
2022/07/31 01:30:51;;;;;;;;;;;563.60;2432.00;;;;;;5114140;28;20006;-56
2022/07/31 01:33:18;;;;;;;;;;;563.60;2432.00;;;;;;5114016;28;19953;-56
2022/07/31 01:35:46;;;;;;;;;;;563.50;2432.00;;;;;;5113659;28;19907;-63
2022/07/31 01:38:13;;;;;;;;;;;563.50;2432.00;;;;;;5113687;28;19987;-56
2022/07/31 01:40:47;;;;;;;;;;;563.40;2432.00;;;;;;5113696;28;19965;-63
2022/07/31 01:43:12;;;;;;;;;;;563.40;2432.00;;;;;;5113620;28;19912;-56
2022/07/31 01:45:39;;;;;;;;;;;563.40;2432.00;;;;;;5113643;28;19916;-62
2022/07/31 01:48:07;;;;;;;;;;;563.40;2432.00;;;;;;5113629;28;20314;-56
2022/07/31 01:50:34;;;;;;;;;;;563.30;2432.00;;;;;;5113335;28;19908;-56
2022/07/31 01:52:59;;;;;;;;;;;563.30;2432.00;;;;;;5113604;28;19914;-63
2022/07/31 01:55:26;;;;;;;;;;;538.50;2406.40;;;;;;5113320;28;19908;-56
2022/07/31 01:57:52;;;;;;;;;;;563.30;2432.00;;;;;;5113216;28;19915;-57
2022/07/31 02:00:18;;;;;;;;;;;538.50;2406.40;;;;;;5113308;28;19908;-63
2022/07/31 02:02:44;;;;;;;;;;;538.50;2406.40;;;;;;5113098;28;19911;-58
2022/07/31 02:05:10;;;;;;;;;;;563.20;2432.00;;;;;;5113268;28;20374;-62
2022/07/31 02:07:36;;;;;;;;;;;563.20;2432.00;;;;;;5113165;28;20277;-64
2022/07/31 02:10:03;;;;;;;;;;;538.50;2406.40;;;;;;5113038;28;20315;-63
2022/07/31 02:12:29;;;;;;;;;;;538.50;2406.40;;;;;;5112994;28;19934;-62
2022/07/31 02:14:55;;;;;;;;;;;538.50;2406.40;;;;;;5113002;28;19911;-56
2022/07/31 02:17:21;;;;;;;;;;;538.50;2406.40;;;;;;5112904;28;19908;-57
2022/07/31 02:19:48;;;;;;;;;;;538.50;2406.40;;;;;;5113003;28;19938;-56
2022/07/31 02:22:14;;;;;;;;;;;538.40;2406.40;;;;;;5112720;28;19912;-58
2022/07/31 02:24:39;;;;;;;;;;;538.40;2406.40;;;;;;5111843;28;20052;-56
2022/07/31 02:27:05;;;;;;;;;;;538.40;2406.40;;;;;;5112878;28;19965;-63
2022/07/31 02:29:32;;;;;;;;;;;538.20;2406.40;;;;;;5112610;28;20255;-56
2022/07/31 02:31:59;;;;;;;;;;;538.20;2406.40;;;;;;5112769;28;19908;-62
2022/07/31 02:34:25;;;;;;;;;;;538.20;2406.40;;;;;;5112714;28;19908;-57
2022/07/31 02:36:52;;;;;;;;;;;538.20;2406.40;;;;;;5112523;28;19961;-57
2022/07/31 02:39:17;;;;;;;;;;;538.20;2406.40;;;;;;5112532;28;19991;-56
2022/07/31 02:41:43;;;;;;;;;;;538.10;2406.40;;;;;;5112222;28;19954;-57
2022/07/31 02:44:13;;;;;;;;;;;538.10;2406.40;;;;;;5112518;28;19912;-56
2022/07/31 02:46:38;;;;;;;;;;;538.00;2406.40;;;;;;5112394;28;20456;-62
2022/07/31 02:49:04;;;;;;;;;;;538.00;2406.40;;;;;;5112304;28;19994;-57
2022/07/31 02:51:30;;;;;;;;;;;538.00;2406.40;;;;;;5112155;28;19907;-57
2022/07/31 02:53:56;;;;;;;;;;;538.00;2406.40;;;;;;5112189;28;19931;-56
2022/07/31 02:56:23;;;;;;;;;;;537.90;2406.40;;;;;;5112274;28;19947;-57
2022/07/31 02:58:48;;;;;;;;;;;537.90;2406.40;;;;;;5112222;28;19907;-60
2022/07/31 03:01:14;;;;;;;;;;;537.80;2406.40;;;;;;5111809;28;19920;-56
2022/07/31 03:03:39;;;;;;;;;;;537.80;2406.40;;;;;;5112085;28;19915;-57
2022/07/31 03:06:05;;;;;;;;;;;537.80;2406.40;;;;;;5111963;28;19920;-62
2022/07/31 03:08:31;;;;;;;;;;;537.80;2406.40;;;;;;5111921;28;19960;-57
2022/07/31 03:10:56;;;;;;;;;;;537.80;2406.40;;;;;;5112170;28;20269;-56
2022/07/31 03:13:24;;;;;;;;;;;537.70;2406.40;;;;;;5111805;28;19911;-56
2022/07/31 03:15:50;;;;;;;;;;;537.60;2406.40;;;;;;5111625;28;20354;-56
2022/07/31 03:18:17;;;;;;;;;;;537.60;2406.40;;;;;;5112213;28;19912;-57
2022/07/31 03:20:44;;;;;;;;;;;537.60;2406.40;;;;;;5111519;28;19908;-62
2022/07/31 03:23:11;;;;;;;;;;;537.60;2406.40;;;;;;5111740;28;19908;-57
2022/07/31 03:25:37;;;;;;;;;;;537.60;2406.40;;;;;;5111717;28;19922;-63
2022/07/31 03:28:02;;;;;;;;;;;537.60;2406.40;;;;;;5111396;28;19912;-55
2022/07/31 03:30:28;;;;;;;;;;;512.90;2380.80;;;;;;5111839;28;19915;-56
2022/07/31 03:32:54;;;;;;;;;;;537.60;2406.40;;;;;;5111598;28;19912;-56
2022/07/31 03:35:19;;;;;;;;;;;537.60;2406.40;;;;;;5111149;28;19908;-56
2022/07/31 03:37:45;;;;;;;;;;;537.60;2406.40;;;;;;5111583;28;20285;-56
2022/07/31 03:40:11;;;;;;;;;;;537.60;2406.40;;;;;;5111160;28;19915;-57
2022/07/31 03:42:36;;;;;;;;;;;537.70;2406.40;;;;;;5111824;28;20015;-57
2022/07/31 03:45:03;;;;;;;;;;;537.90;2406.40;;;;;;5111530;28;20420;-62
2022/07/31 03:47:29;;;;;;;;;;;538.00;2406.40;;;;;;5111464;28;19955;-62
2022/07/31 03:49:55;;;;;;;;;;;538.00;2406.40;;;;;;5111378;28;19993;-56
2022/07/31 03:52:21;;;;;;;;;;;538.00;2406.40;;;;;;5111322;28;19908;-62
2022/07/31 03:54:46;;;;;;;;;;;538.10;2406.40;;;;;;5111422;28;20404;-56
2022/07/31 03:57:12;;;;;;;;;;;538.20;2406.40;;;;;;5111517;28;19908;-62
2022/07/31 03:59:38;;;;;;;;;;;538.30;2406.40;;;;;;5111655;28;19914;-63
2022/07/31 04:02:06;;;;;;;;;;;538.40;2406.40;;;;;;5111161;28;19920;-56
2022/07/31 04:04:33;;;;;;;;;;;538.50;2406.40;;;;;;5111030;28;19915;-57
2022/07/31 04:06:59;;;;;;;;;;;538.50;2406.40;;;;;;5111278;28;20433;-63
2022/07/31 04:09:24;;;;;;;;;;;563.20;2432.00;;;;;;5111080;28;20010;-61
2022/07/31 04:11:50;;;;;;;;;;;563.30;2432.00;;;;;;5111103;28;19964;-58
2022/07/31 04:14:15;;;;;;;;;;;563.40;2432.00;;;;;;5111493;28;19957;-57
2022/07/31 04:16:41;;;;;;;;;;;563.60;2432.00;;;;;;5111429;28;20353;-57
2022/07/31 04:19:06;;;;;;;;;;;563.60;2432.00;;;;;;5111324;28;20358;-57
2022/07/31 04:21:32;;;;;;;;;;;563.60;2432.00;;;;;;5110953;28;19930;-57
2022/07/31 04:23:58;;;;;;;;;;;563.70;2432.00;;;;;;5111156;28;19966;-57
2022/07/31 04:26:23;;;;;;;;;;;563.80;2432.00;;;;;;5110851;28;20285;-57
2022/07/31 04:28:49;;;;;;;;;;;563.80;2432.00;;;;;;5111131;28;19912;-57
2022/07/31 04:31:14;;;;;;;;;;;564.00;2432.00;;;;;;5110945;28;19907;-57
2022/07/31 04:33:40;;;;;;;;;;;564.10;2432.00;;;;;;5110994;28;20328;-57
2022/07/31 04:36:05;;;;;;;;;;;589.00;2432.00;;;;;;5111047;28;19907;-57
2022/07/31 04:38:31;;;;;;;;;;;588.90;2432.00;;;;;;5110744;28;20395;-63
2022/07/31 04:40:57;;;;;;;;;;;588.80;2432.00;;;;;;5110820;28;19912;-62
2022/07/31 04:43:22;;;;;;;;;;;589.00;2432.00;;;;;;5110668;28;19911;-57
2022/07/31 04:45:48;;;;;;;;;;;589.20;2432.00;;;;;;5110786;28;19922;-63
2022/07/31 04:48:14;;;;;;;;;;;589.50;2432.00;;;;;;5112587;28;20020;-57
2022/07/31 04:50:39;;;;;;;;;;;614.40;2432.00;;;;;;5114897;28;19968;-62
2022/07/31 04:53:05;;;;;;;;;;;614.60;2432.00;;;;;;5114590;28;19908;-56
2022/07/31 04:55:30;;;;;;;;;;;614.90;2432.00;;;;;;5114429;28;19912;-56
2022/07/31 04:57:56;;;;;;;;;;;615.30;2432.00;;;;;;5114550;28;20049;-63
2022/07/31 05:00:21;;;;;;;;;;;640.40;2432.00;;;;;;5114385;28;19961;-61
2022/07/31 05:02:47;;;;;;;;;;;666.00;2432.00;;;;;;5114685;28;20401;-62
2022/07/31 05:05:13;;;;;;;;;;;666.50;2432.00;;;;;;5114057;28;20010;-57
2022/07/31 05:07:38;;;;;;;;;;;768.10;2304.00;;;;;;5114512;28;19912;-62
2022/07/31 05:10:04;;;;;;;;;;;743.20;2201.60;;;;;;5114218;28;19911;-57
2022/07/31 05:12:30;;;;;;;;;;;742.40;2304.00;;;;;;5114174;28;19918;-56
2022/07/31 05:14:55;;;;;;;;;;;793.90;2073.60;;;;;;5114304;28;19912;-57
2022/07/31 05:17:21;;;;;;;;;;;845.70;1766.40;;;;;;5114232;28;19951;-57
2022/07/31 05:19:46;;;;;;;;;;;896.80;1587.20;;;;;;5114301;28;19908;-57
2022/07/31 05:22:12;;;;;;;;;;;947.50;1484.80;;;;;;5113993;28;20441;-58
2022/07/31 05:24:37;;;;;;;;;;;973.30;1433.60;;;;;;5114097;28;19914;-57
2022/07/31 05:27:03;;;;;;;;;;;998.80;1382.40;;;;;;5113658;28;20015;-62
2022/07/31 05:29:29;;;;;;;;;;;1024.10;1331.20;;;;;;5114030;28;20281;-57
2022/07/31 05:31:55;;;;;;;;;;;1024.50;1305.60;;;;;;5113659;28;19908;-63
2022/07/31 05:34:20;;;;;;;;;;;1049.70;1305.60;;;;;;5113718;28;19908;-59
2022/07/31 05:36:46;;;;;;;;;;;1049.80;1305.60;;;;;;5114000;28;19914;-63
2022/07/31 05:39:11;;;;;;;;;;;1050.50;1228.80;;;;;;5113735;28;19980;-58
2022/07/31 05:41:37;;;;;;;;;;;;;;;;;;5113745;28;19919;-57
2022/07/31 05:44:03;;;;;;;;;;;1050.50;1228.80;;;;;;5113565;28;20278;-58
2022/07/31 05:46:29;;;;;;;;;;;;;;;;;;5113758;28;19985;-57
2022/07/31 05:48:55;;;;;;;;;;;1101.10;1177.60;;;;;;5113662;28;19912;-58
2022/07/31 05:51:22;;;;;;;;;;;1126.60;1152.00;;;;;;5113487;28;20327;-60
2022/07/31 05:53:48;;;;;;;;;;;1126.60;1152.00;;;;;;5095258;28;19907;-65
2022/07/31 05:56:13;;;;;;;;;;;1127.10;1100.80;;;;;;5113309;28;19911;-57
2022/07/31 05:58:39;;;;;;;;;;;1152.10;1100.80;;;;;;5113376;28;19908;-58
2022/07/31 06:01:05;;;;;;;;;;;1127.10;1100.80;;;;;;5113024;28;20326;-58
2022/07/31 06:03:34;;;;;;;;;;;1152.60;1075.20;;;;;;5113171;28;19953;-58
2022/07/31 06:06:00;;;;;;;;;;;1177.80;1024.00;;;;;;5113363;28;20322;-57
2022/07/31 06:08:27;;;;;;;;;;;1177.80;1024.00;;;;;;5113371;28;19912;-58
2022/07/31 06:10:53;;;;;;;;;;;1178.20;1024.00;;;;;;5112901;28;19916;-58
2022/07/31 06:13:22;;;;;;;;;;;1203.20;1024.00;;;;;;5113285;28;19912;-66
2022/07/31 06:15:48;;;;;;;;;;;1203.80;998.40;;;;;;5113054;28;19907;-58
2022/07/31 06:18:14;;;;;;;;;;;1228.90;998.40;;;;;;5113125;28;19918;-58
2022/07/31 06:20:40;;;;;;;;;;;1228.90;972.80;;;;;;5113054;28;19908;-58
2022/07/31 06:23:05;;;;;;;;;;;1229.20;972.80;;;;;;5112936;28;20288;-58
2022/07/31 06:25:31;;;;;;;;;;;1203.70;972.80;;;;;;5112820;28;19957;-58
2022/07/31 06:27:57;;;;;;;;;;;1203.80;972.80;;;;;;5112738;28;20393;-67
2022/07/31 06:30:22;;;;;;;;;;;1229.30;947.20;;;;;;5112922;28;19969;-58
2022/07/31 06:32:48;;;;;;;;;;;1229.30;972.80;;;;;;5112779;28;20422;-58
2022/07/31 06:35:13;;;;;;;;;;;1229.50;947.20;;;;;;5112713;28;19912;-69
2022/07/31 06:37:39;;;;;;;;;;;1255.00;947.20;;;;;;5112758;28;19947;-58
2022/07/31 06:40:05;;;;;;;;;;;1177.60;972.80;;;;;;5112391;28;19908;-62
2022/07/31 06:42:30;;;;;;;;;;;1075.70;1100.80;;;;;;5112308;28;19912;-58
2022/07/31 06:44:56;;;;;;;;;;;1152.50;1024.00;;;;;;5112424;28;19940;-55
2022/07/31 06:47:22;;;;;;;;;;;1178.50;972.80;;;;;;5112272;28;20346;-58
2022/07/31 06:49:48;;;;;;;;;;;1203.90;947.20;;;;;;5112361;28;19916;-58
2022/07/31 06:52:14;;;;;;;;;;;1228.90;947.20;;;;;;5112144;28;19911;-59
2022/07/31 06:54:40;;;;;;;;;;;1228.80;972.80;;;;;;5112461;28;19908;-58
2022/07/31 06:57:06;;;;;;;;;;;1229.30;947.20;;;;;;5112353;28;19919;-65
2022/07/31 06:59:31;;;;;;;;;;;1229.40;947.20;;;;;;5111977;28;19973;-58
2022/07/31 07:01:57;;;;;;;;;;;1229.50;921.60;;;;;;5111641;28;19920;-58
2022/07/31 07:04:23;;;;;;;;;;;1229.50;896.00;;;;;;5111401;28;19912;-58
2022/07/31 07:06:48;;;;;;;;;;;1255.00;896.00;;;;;;5112187;28;19915;-58
2022/07/31 07:09:16;;;;;;;;;;;1254.90;921.60;;;;;;5111473;28;20205;-68
2022/07/31 07:11:41;;;;;;;;;;;1254.90;896.00;;;;;;5111134;28;20002;-58
2022/07/31 07:14:07;;;;;;;;;;;1255.00;896.00;;;;;;5111983;28;19912;-68
2022/07/31 07:16:32;;;;;;;;;;;1280.50;870.40;;;;;;5111680;28;20362;-69
2022/07/31 07:18:58;;;;;;;;;;;1280.40;819.20;;;;;;5111830;28;19915;-66
2022/07/31 07:21:23;;;;;;;;;;;1280.20;819.20;;;;;;5111788;28;19943;-58
2022/07/31 07:23:49;;;;;;;;;;;1254.90;870.40;;;;;;5111901;28;19908;-65
2022/07/31 07:26:14;;;;;;;;;;;1280.00;844.80;;;;;;5111603;28;19923;-67
2022/07/31 07:28:40;;;;;;;;;;;1280.70;819.20;;;;;;5111799;28;19908;-58
2022/07/31 07:31:06;;;;;;;;;;;1280.50;844.80;;;;;;5111573;28;20100;-61
2022/07/31 07:33:32;;;;;;;;;;;1306.20;793.60;;;;;;5111724;28;19911;-60
2022/07/31 07:35:57;;;;;;;;;;;1306.20;793.60;;;;;;5111625;28;20349;-69
2022/07/31 07:38:23;;;;;;;;;;;1306.20;793.60;;;;;;5111312;28;19912;-69
2022/07/31 07:40:49;;;;;;;;;;;1305.70;793.60;;;;;;5111645;28;19911;-70
2022/07/31 07:43:14;;;;;;;;;;;1306.20;793.60;;;;;;5111344;28;19958;-68
2022/07/31 07:45:40;;;;;;;;;;;1306.50;793.60;;;;;;5110896;28;19920;-65
2022/07/31 07:48:06;;;;;;;;;;;1331.60;793.60;;;;;;5130451;27;19928;-65
2022/07/31 07:50:31;;;;;;;;;;;1331.20;793.60;;;;;;5130346;27;19920;-59
2022/07/31 07:52:57;;;;;;;;;;;1306.30;793.60;;;;;;5118771;27;19950;-60
2022/07/31 07:55:23;;;;;;;;;;;1254.80;870.40;;;;;;5125322;28;19923;-66
2022/07/31 07:57:48;;;;;;;;;;;1305.60;819.20;;;;;;5111217;28;19960;-66
2022/07/31 08:00:15;;;;;;;;;;;1254.80;870.40;;;;;;5111084;28;19908;-61
2022/07/31 08:02:43;;;;;;;;;;;1280.20;819.20;;;;;;5111125;28;19919;-60
2022/07/31 08:05:09;;;;;;;;;;;1280.40;819.20;;;;;;5111515;28;19919;-66
2022/07/31 08:07:35;;;;;;;;;;;1280.90;819.20;;;;;;5111032;28;20667;-61
2022/07/31 08:10:01;;;;;;;;;;;1280.00;844.80;;;;;;5111155;28;19907;-66
2022/07/31 08:12:27;;;;;;;;;;;1280.40;819.20;;;;;;5111121;28;19919;-64
2022/07/31 08:14:53;;;;;;;;;;;1306.20;793.60;;;;;;5111018;28;20307;-64
2022/07/31 08:17:18;;;;;;;;;;;1255.00;844.80;;;;;;5111335;28;19944;-68
2022/07/31 08:19:44;;;;;;;;;;;1229.20;870.40;;;;;;5110977;28;19915;-58
2022/07/31 08:22:10;;;;;;;;;;;1178.10;896.00;;;;;;5111313;28;19931;-68
2022/07/31 08:24:35;;;;;;;;;;;1203.30;870.40;;;;;;5115204;28;19976;-66
2022/07/31 08:29:45;;;;;;;;;;;1101.50;947.20;;;;;;5115086;28;19914;-71
2022/07/31 08:32:11;;;;;;;;;;;1075.50;998.40;;;;;;5115307;28;20401;-59
2022/07/31 08:34:36;;;;;;;;;;;1049.70;1024.00;;;;;;5115145;28;19907;-61
2022/07/31 08:37:03;;;;;;;;;;;998.40;1075.20;;;;;;5114727;28;19908;-66
2022/07/31 08:39:28;;;;;;;;;;;973.50;1049.60;;;;;;5114939;28;19915;-70
2022/07/31 08:41:54;;;;;;;;;;;947.70;1100.80;;;;;;5114736;28;19908;-69
2022/07/31 08:44:20;;;;;;;;;;;947.40;1100.80;;;;;;5114876;28;20010;-61
2022/07/31 08:46:46;;;;;;;;;;;947.30;1100.80;;;;;;5114754;28;19958;-63
2022/07/31 08:49:14;;;;;;;;;;;922.00;1152.00;;;;;;5114748;28;19908;-66
2022/07/31 08:51:42;;;;;;;;;;;921.60;1177.60;;;;;;5114917;28;19908;-61
2022/07/31 08:54:11;;;;;;;;;;;896.80;1177.60;;;;;;5114615;28;19915;-59
2022/07/31 08:56:37;;;;;;;;;;;896.60;1203.20;;;;;;5114746;28;19942;-69
2022/07/31 08:59:03;;;;;;;;;;;871.30;1228.80;;;;;;5114233;28;19943;-60
2022/07/31 09:01:31;;;;;;;;;;;870.80;1280.00;;;;;;5114411;28;20006;-62
2022/07/31 09:03:57;;;;;;;;;;;870.70;1280.00;;;;;;5114448;28;19951;-59
2022/07/31 09:06:23;;;;;;;;;;;845.60;1331.20;;;;;;5114107;28;19923;-59
2022/07/31 09:08:48;;;;;;;;;;;845.70;1280.00;;;;;;5114612;28;19908;-60
2022/07/31 09:11:14;;;;;;;;;;;845.60;1305.60;;;;;;5113997;28;19981;-62
2022/07/31 09:13:51;;;;;;;;;;;845.40;1280.00;;;;;;5114369;28;20025;-59
2022/07/31 09:16:16;;;;;;;;;;;845.60;1254.40;;;;;;5114299;28;19995;-61
2022/07/31 09:18:42;;;;;;;;;;;845.40;1280.00;;;;;;5114010;28;19955;-69
2022/07/31 09:21:08;;;;;;;;;;;845.30;1280.00;;;;;;5114218;28;19908;-71
2022/07/31 09:23:42;;;;;;;;;;;845.00;1331.20;;;;;;5114140;28;20076;-61
2022/07/31 09:26:08;;;;;;;;;;;844.80;1356.80;;;;;;5114099;28;19916;-64
2022/07/31 09:28:36;;;;;;;;;;;845.00;1356.80;;;;;;5113814;28;19911;-59
2022/07/31 09:31:03;;;;;;;;;;;845.40;1331.20;;;;;;5113741;28;19929;-61
2022/07/31 09:33:29;;;;;;;;;;;845.70;1305.60;;;;;;5113764;28;20277;-60
2022/07/31 09:35:55;;;;;;;;;;;870.70;1254.40;;;;;;5113504;28;19912;-63
2022/07/31 09:38:27;;;;;;;;;;;870.50;1280.00;;;;;;5113614;28;19914;-62
2022/07/31 09:40:53;;;;;;;;;;;870.50;1280.00;;;;;;5113520;28;19943;-63
2022/07/31 09:43:23;;;;;;;;;;;870.40;1280.00;;;;;;5113682;28;20369;-68
2022/07/31 09:45:56;;;;;;;;;;;845.20;1305.60;;;;;;5113891;28;20281;-61
2022/07/31 09:48:21;;;;;;;;;;;845.20;1305.60;;;;;;5113523;28;19915;-64
2022/07/31 09:50:54;;;;;;;;;;;845.20;1305.60;;;;;;5113537;28;19908;-69
2022/07/31 09:53:20;;;;;;;;;;;844.90;1356.80;;;;;;5113492;28;19907;-70
2022/07/31 09:55:50;;;;;;;;;;;844.90;1331.20;;;;;;5113605;28;19914;-67
2022/07/31 09:58:15;;;;;;;;;;;820.10;1305.60;;;;;;5113398;28;19912;-68
2022/07/31 10:00:41;;;;;;;;;;;819.90;1331.20;;;;;;5113272;28;20279;-70
2022/07/31 10:03:07;;;;;;;;;;;819.60;1356.80;;;;;;5113300;28;20018;-64
2022/07/31 10:05:32;;;;;;;;;;;819.50;1356.80;;;;;;5113086;28;19916;-69
2022/07/31 10:07:59;;;;;;;;;;;819.40;1331.20;;;;;;5113329;28;19941;-67
2022/07/31 10:10:24;;;;;;;;;;;819.60;1331.20;;;;;;5112896;28;19915;-63
2022/07/31 10:12:52;;;;;;;;;;;820.00;1305.60;;;;;;5112999;28;19911;-60
2022/07/31 10:15:18;;;;;;;;;;;820.00;1280.00;;;;;;5113205;28;19912;-66
2022/07/31 10:17:46;;;;;;;;;;;819.30;1305.60;;;;;;5112795;28;19919;-59
2022/07/31 10:20:16;;;;;;;;;;;794.30;1331.20;;;;;;5112807;28;20273;-69
2022/07/31 10:22:44;;;;;;;;;;;794.30;1331.20;;;;;;5112590;28;20286;-64
2022/07/31 10:25:12;;;;;;;;;;;794.30;1331.20;;;;;;5112723;28;19953;-73
2022/07/31 10:27:38;;;;;;;;;;;819.30;1331.20;;;;;;5112962;28;19916;-70
2022/07/31 10:30:05;;;;;;;;;;;794.50;1331.20;;;;;;5112725;28;19912;-60
2022/07/31 10:32:30;;;;;;;;;;;819.50;1331.20;;;;;;5112549;28;20364;-61
2022/07/31 10:34:56;;;;;;;;;;;819.30;1356.80;;;;;;5112650;28;19958;-59
2022/07/31 10:37:25;;;;;;;;;;;794.50;1356.80;;;;;;5112480;28;19946;-59
2022/07/31 10:40:02;;;;;;;;;;;794.00;1382.40;;;;;;5112410;28;19968;-60
2022/07/31 10:42:36;;;;;;;;;;;768.80;1408.00;;;;;;5112288;28;19918;-72
2022/07/31 10:45:02;;;;;;;;;;;768.70;1408.00;;;;;;5111720;28;19912;-71
2022/07/31 10:47:28;;;;;;;;;;;768.60;1433.60;;;;;;5112583;28;20328;-72
2022/07/31 10:49:53;;;;;;;;;;;768.40;1433.60;;;;;;5112376;28;20443;-68
2022/07/31 10:52:32;;;;;;;;;;;768.10;1459.20;;;;;;5112354;28;19908;-69
2022/07/31 10:55:00;;;;;;;;;;;743.20;1484.80;;;;;;5112397;28;19990;-71
2022/07/31 10:57:28;;;;;;;;;;;742.80;1510.40;;;;;;5112247;28;19908;-72
2022/07/31 10:59:54;;;;;;;;;;;742.60;1536.00;;;;;;5112044;28;19912;-61
2022/07/31 11:02:27;;;;;;;;;;;742.40;1536.00;;;;;;5111967;28;20438;-59
2022/07/31 11:04:53;;;;;;;;;;;717.70;1484.80;;;;;;5111980;28;20360;-59
2022/07/31 11:07:20;;;;;;;;;;;717.60;1510.40;;;;;;5111821;28;19916;-58
2022/07/31 11:09:45;;;;;;;;;;;742.40;1510.40;;;;;;5110622;28;19934;-61
2022/07/31 11:12:18;;;;;;;;;;;717.70;1459.20;;;;;;5109668;28;19938;-62
2022/07/31 11:14:43;;;;;;;;;;;717.70;1433.60;;;;;;5109671;28;19927;-58
2022/07/31 11:17:09;;;;;;;;;;;742.50;1459.20;;;;;;5109847;28;19908;-60
2022/07/31 11:19:41;;;;;;;;;;;742.40;1459.20;;;;;;5109757;28;19951;-62
2022/07/31 11:22:11;;;;;;;;;;;717.20;1459.20;;;;;;5109711;28;19952;-64
2022/07/31 11:24:37;;;;;;;;;;;717.20;1433.60;;;;;;5109067;28;19952;-71
2022/07/31 11:27:02;;;;;;;;;;;717.20;1433.60;;;;;;5109525;28;19920;-71
2022/07/31 11:29:35;;;;;;;;;;;717.10;1459.20;;;;;;5109529;28;19987;-67
2022/07/31 11:32:03;;;;;;;;;;;717.00;1459.20;;;;;;5109534;28;20407;-61
2022/07/31 11:34:29;;;;;;;;;;;716.80;1459.20;;;;;;5109720;28;19912;-64
2022/07/31 11:36:55;;;;;;;;;;;716.80;1484.80;;;;;;5108612;28;19908;-62
2022/07/31 11:39:22;;;;;;;;;;;716.80;1484.80;;;;;;5109413;28;20273;-60
2022/07/31 11:41:49;;;;;;;;;;;716.80;1484.80;;;;;;5109454;28;20391;-62
2022/07/31 11:44:20;;;;;;;;;;;716.90;1484.80;;;;;;5109306;28;20021;-58
2022/07/31 11:46:47;;;;;;;;;;;716.90;1510.40;;;;;;5109380;28;19922;-65
2022/07/31 11:49:18;;;;;;;;;;;716.90;1484.80;;;;;;5108777;28;19918;-71
2022/07/31 11:51:44;;;;;;;;;;;716.90;1510.40;;;;;;5109099;28;20370;-66
2022/07/31 11:54:10;;;;;;;;;;;716.80;1510.40;;;;;;5108529;28;19919;-60
2022/07/31 11:56:36;;;;;;;;;;;717.20;1484.80;;;;;;5107373;28;19908;-60
2022/07/31 11:59:01;;;;;;;;;;;717.40;1484.80;;;;;;5105068;28;19912;-65
2022/07/31 12:01:28;;;;;;;;;;;717.20;1484.80;;;;;;5107795;28;19920;-67
2022/07/31 12:03:54;;;;;;;;;;;717.40;1484.80;;;;;;5107337;28;19915;-64
2022/07/31 12:06:20;;;;;;;;;;;717.40;1484.80;;;;;;5107520;28;19920;-69
2022/07/31 12:08:46;;;;;;;;;;;742.40;1484.80;;;;;;5107709;28;19999;-59
2022/07/31 12:11:12;;;;;;;;;;;742.40;1510.40;;;;;;5107571;28;20009;-63
2022/07/31 12:13:38;;;;;;;;;;;742.40;1510.40;;;;;;5107901;28;20310;-66
2022/07/31 12:16:04;;;;;;;;;;;742.70;1510.40;;;;;;5107257;28;20051;-61
2022/07/31 12:18:31;;;;;;;;;;;743.00;1459.20;;;;;;5107793;28;19915;-68
2022/07/31 12:20:59;;;;;;;;;;;743.30;1459.20;;;;;;5107593;28;20284;-68
2022/07/31 12:23:25;;;;;;;;;;;768.10;1433.60;;;;;;5107526;28;19955;-68
2022/07/31 12:25:51;;;;;;;;;;;768.30;1433.60;;;;;;5107633;28;19946;-61
2022/07/31 12:28:16;;;;;;;;;;;768.60;1433.60;;;;;;5107234;28;19916;-62
2022/07/31 12:30:43;;;;;;;;;;;768.90;1433.60;;;;;;5107404;28;19912;-65
2022/07/31 12:33:09;;;;;;;;;;;768.60;1408.00;;;;;;5107456;28;19930;-71
2022/07/31 12:35:36;;;;;;;;;;;793.70;1433.60;;;;;;5107117;28;20384;-71
2022/07/31 12:38:01;;;;;;;;;;;793.90;1408.00;;;;;;5104348;28;19908;-72
2022/07/31 12:40:27;;;;;;;;;;;793.70;1433.60;;;;;;5088554;28;19998;-60
2022/07/31 12:42:53;;;;;;;;;;;793.70;1408.00;;;;;;5088402;28;19912;-64
2022/07/31 12:45:28;;;;;;;;;;;768.90;1382.40;;;;;;5107123;28;19923;-61
2022/07/31 12:47:54;;;;;;;;;;;768.90;1408.00;;;;;;5108597;28;19916;-69
2022/07/31 12:50:20;;;;;;;;;;;768.90;1382.40;;;;;;5108411;28;19912;-68
2022/07/31 12:52:45;;;;;;;;;;;768.70;1408.00;;;;;;5108899;28;19912;-61
2022/07/31 12:55:11;;;;;;;;;;;768.40;1408.00;;;;;;5108462;28;20006;-61
2022/07/31 12:57:37;;;;;;;;;;;743.30;1433.60;;;;;;5108417;28;19912;-63
2022/07/31 13:00:03;;;;;;;;;;;768.10;1433.60;;;;;;5107973;28;19952;-68
2022/07/31 13:02:30;;;;;;;;;;;768.70;1408.00;;;;;;5108927;28;20280;-68
2022/07/31 13:04:55;;;;;;;;;;;768.90;1408.00;;;;;;5107643;28;19908;-71
2022/07/31 13:07:21;;;;;;;;;;;793.70;1408.00;;;;;;5123831;28;19931;-59
2022/07/31 13:09:46;;;;;;;;;;;793.80;1408.00;;;;;;5130385;27;20320;-70
2022/07/31 13:12:12;;;;;;;;;;;768.60;1408.00;;;;;;5130905;27;20284;-67
2022/07/31 13:14:37;;;;;;;;;;;768.80;1433.60;;;;;;5131402;27;20714;-66
2022/07/31 13:17:03;;;;;;;;;;;768.90;1408.00;;;;;;5130987;27;19916;-69
2022/07/31 13:19:30;;;;;;;;;;;793.70;1459.20;;;;;;5131175;27;19916;-70
2022/07/31 13:21:55;;;;;;;;;;;793.70;1433.60;;;;;;5130445;27;19907;-64
2022/07/31 13:24:21;;;;;;;;;;;768.70;1433.60;;;;;;5130721;27;19912;-61
2022/07/31 13:26:47;;;;;;;;;;;768.70;1408.00;;;;;;5130883;27;19999;-69
2022/07/31 13:29:13;;;;;;;;;;;768.20;1459.20;;;;;;5131062;27;19907;-65
2022/07/31 13:31:39;;;;;;;;;;;743.20;1459.20;;;;;;5130858;27;20357;-72
2022/07/31 13:34:05;;;;;;;;;;;743.30;1484.80;;;;;;5130347;27;20361;-68
2022/07/31 13:36:30;;;;;;;;;;;743.10;1459.20;;;;;;5127760;27;19922;-57
2022/07/31 13:38:56;;;;;;;;;;;743.10;1484.80;;;;;;5130891;27;20005;-70
2022/07/31 13:41:27;;;;;;;;;;;768.10;1433.60;;;;;;5130423;27;20006;-69